Sauk Centre, MN

7:33 AM CST on December 09, 2019 (GMT -0600)
Sauk Centre

Weather History for KD39 - October, 2019

Change the Weather History Date:

Wednesday, October 30, 2019

  Actual Average (KGHW) Record (KGHW)
Temperature  
Mean Temperature 22 °F -  
Max Temperature 28 °F 50 °F 79 °F (1950)
Min Temperature 17 °F 28 °F 11 °F (1991)
Degree Days  
Heating Degree Days 42    
Moisture  
Dew Point 15 °F    
Average Humidity 70    
Maximum Humidity 88    
Minimum Humidity 55    
Precipitation  
Precipitation 0.00 in - - ()
Sea Level Pressure  
Sea Level Pressure 30.27 in    
Wind  
Wind Speed 7 mph ()    
Max Wind Speed 13 mph    
Max Gust Speed 16 mph    
Visibility 10.0 miles    
Events      
Averages and records for this station are not official NWS values.
T = Trace of Precipitation, MM = Missing Value Source: Averaged Metar Reports

Daily Weather History Graph

Daily Weather History Graph

Search for Another Location

Airport or City:

Astronomy

Oct. 30, 2019 Rise Set
Actual Time 7:56 AM CDT 6:09 PM CDT
Civil Twilight 7:25 AM CDT 6:40 PM CDT
Nautical Twilight 6:50 AM CDT 7:15 PM CDT
Astronomical Twilight 6:16 AM CDT 7:49 PM CDT
Moon 10:47 AM CDT (10/30) 8:10 PM CDT (10/30)
Length of Visible Light 11h 14m
Length of Day
10h 12m
Waxing Crescent, 9% of the Moon is Illuminated
Oct 30
Waxing Crescent
Nov 4
First Quarter
Nov 12
Full
Nov 19
Last Quarter
Nov 26
New

Hourly Weather History & Observations

Time (CDT) Temp. Windchill Dew Point Humidity Pressure Visibility Wind Dir Wind Speed Gust Speed Precip Events Conditions
12:18 AM 20.1 °F 13.6 °F 14.9 °F 80% 30.32 in 10.0 mi WSW 4.6 mph - N/A   Clear
12:36 AM 19.9 °F 12.1 °F 14.7 °F 80% 30.32 in 10.0 mi WSW 5.8 mph - N/A   Clear
12:55 AM 19.2 °F 12.5 °F 14.5 °F 82% 30.32 in 10.0 mi WSW 4.6 mph - N/A   Clear
1:15 AM 19.0 °F 12.3 °F 14.5 °F 83% 30.33 in 10.0 mi WSW 4.6 mph - N/A   Clear
1:16 AM 19.0 °F 12.3 °F 14.5 °F 83% 30.32 in 10.0 mi WSW 4.6 mph - N/A   Clear
1:35 AM 19.4 °F 11.5 °F 14.9 °F 83% 30.32 in 10.0 mi WSW 5.8 mph - N/A   Clear
1:40 AM 19.6 °F 11.7 °F 14.9 °F 82% 30.32 in 10.0 mi WSW 5.8 mph - N/A   Clear
1:57 AM 20.1 °F 12.3 °F 14.5 °F 79% 30.31 in 10.0 mi WSW 5.8 mph - N/A   Clear
2:15 AM 20.1 °F 11.3 °F 14.5 °F 79% 30.31 in 10.0 mi West 6.9 mph - N/A   Clear
2:35 AM 19.6 °F 10.6 °F 14.5 °F 81% 30.31 in 10.0 mi West 6.9 mph - N/A   Clear
2:55 AM 18.9 °F 12.1 °F 14.2 °F 82% 30.32 in 10.0 mi SSW 4.6 mph - N/A   Clear
2:56 AM 18.9 °F 12.1 °F 14.2 °F 82% 30.33 in 10.0 mi SW 4.6 mph - N/A   Clear
3:19 AM 19.4 °F 10.4 °F 15.1 °F 83% 30.33 in 10.0 mi SSW 6.9 mph - N/A   Scattered Clouds
3:36 AM 19.8 °F 11.9 °F 15.8 °F 85% 30.33 in 10.0 mi SW 5.8 mph - N/A   Overcast
3:56 AM 20.3 °F 11.5 °F 15.4 °F 81% 30.31 in 10.0 mi WSW 6.9 mph - N/A   Overcast
4:15 AM 20.5 °F 10.0 °F 15.6 °F 81% 30.31 in 10.0 mi West 9.2 mph - N/A   Overcast
4:16 AM 20.5 °F 10.0 °F 15.8 °F 82% 30.31 in 10.0 mi West 9.2 mph - N/A   Overcast
4:35 AM 20.1 °F 10.3 °F 15.6 °F 83% 30.31 in 10.0 mi WSW 8.1 mph - N/A   Scattered Clouds
4:39 AM 19.9 °F 11.1 °F 15.6 °F 83% 30.31 in 10.0 mi WSW 6.9 mph - N/A   Scattered Clouds
4:57 AM 19.4 °F 12.8 °F 15.3 °F 84% 30.31 in 10.0 mi WSW 4.6 mph - N/A   Clear
5:15 AM 18.5 °F 10.4 °F 14.9 °F 86% 30.31 in 10.0 mi SW 5.8 mph - N/A   Clear
5:35 AM 18.5 °F 10.4 °F 14.9 °F 86% 30.31 in 10.0 mi WSW 5.8 mph - N/A   Clear
5:36 AM 18.5 °F 10.4 °F 14.9 °F 86% 30.31 in 10.0 mi WSW 5.8 mph - N/A   Clear
5:55 AM 18.5 °F 10.4 °F 15.1 °F 86% 30.31 in 10.0 mi SW 5.8 mph - N/A   Clear
5:56 AM 18.5 °F 10.4 °F 14.9 °F 86% 30.31 in 10.0 mi SW 5.8 mph - N/A   Clear
6:18 AM 19.4 °F 11.5 °F 15.8 °F 86% 30.31 in 10.0 mi SW 5.8 mph - N/A   Mostly Cloudy
6:36 AM 19.2 °F 11.3 °F 15.8 °F 87% 30.32 in 10.0 mi SSW 5.8 mph - N/A   Overcast
6:56 AM 19.4 °F 12.8 °F 15.8 °F 86% 30.31 in 10.0 mi SW 4.6 mph - N/A   Overcast
7:15 AM 19.0 °F 11.1 °F 15.1 °F 85% 30.31 in 10.0 mi SW 5.8 mph - N/A   Mostly Cloudy
7:35 AM 18.5 °F 10.4 °F 14.9 °F 86% 30.31 in 10.0 mi SW 5.8 mph - N/A   Overcast
7:39 AM 18.5 °F 11.7 °F 14.9 °F 86% 30.31 in 10.0 mi SW 4.6 mph - N/A   Mostly Cloudy
7:58 AM 18.1 °F 11.3 °F 14.7 °F 86% 30.31 in 10.0 mi SW 4.6 mph - N/A   Scattered Clouds
8:15 AM 17.6 °F - 14.0 °F 86% 30.31 in 10.0 mi Calm Calm - N/A   Clear
8:35 AM 17.4 °F 12.1 °F 14.5 °F 88% 30.31 in 10.0 mi SSW 3.5 mph - N/A   Scattered Clouds
8:36 AM 17.6 °F 12.3 °F 14.7 °F 88% 30.31 in 10.0 mi SSW 3.5 mph - N/A   Scattered Clouds
8:55 AM 19.0 °F 12.3 °F 15.8 °F 87% 30.31 in 10.0 mi SW 4.6 mph - N/A   Scattered Clouds
9:18 AM 21.2 °F 13.6 °F 16.7 °F 83% 30.31 in 10.0 mi SW 5.8 mph - N/A   Clear
9:56 AM 24.1 °F 16.0 °F 18.1 °F 78% 30.31 in 10.0 mi WSW 6.9 mph - N/A   Scattered Clouds
10:15 AM 25.2 °F 16.5 °F 17.8 °F 74% 30.31 in 10.0 mi WSW 8.1 mph - N/A   Scattered Clouds
10:16 AM 25.2 °F 16.5 °F 17.8 °F 74% 30.31 in 10.0 mi WSW 8.1 mph - N/A   Scattered Clouds
10:35 AM 26.1 °F 18.4 °F 18.1 °F 72% 30.31 in 10.0 mi SW 6.9 mph - N/A   Clear
10:39 AM 26.4 °F 18.9 °F 18.5 °F 72% 30.31 in 10.0 mi SW 6.9 mph - N/A   Clear
10:58 AM 27.1 °F 16.9 °F 16.9 °F 65% 30.30 in 10.0 mi West 11.5 mph - N/A   Clear
11:15 AM 27.7 °F 19.6 °F 16.3 °F 62% 30.30 in 10.0 mi SW 8.1 mph - N/A   Scattered Clouds
11:35 AM 27.0 °F 18.0 °F 15.1 °F 61% 30.31 in 10.0 mi West 9.2 mph - N/A   Mostly Cloudy
11:36 AM 27.0 °F 18.7 °F 14.7 °F 60% 30.31 in 10.0 mi West 8.1 mph - N/A   Mostly Cloudy
11:55 AM 28.4 °F 20.4 °F 15.6 °F 59% 30.30 in 10.0 mi WSW 8.1 mph - N/A   Overcast
12:18 PM 27.3 °F 18.4 °F 14.9 °F 60% 30.30 in 10.0 mi WSW 9.2 mph - N/A   Overcast
12:37 PM 27.5 °F 18.6 °F 15.6 °F 61% 30.30 in 10.0 mi West 9.2 mph - N/A   Overcast
12:56 PM 27.5 °F 18.6 °F 15.3 °F 60% 30.29 in 10.0 mi WSW 9.2 mph - N/A   Overcast
1:15 PM 27.3 °F 19.1 °F 15.3 °F 61% 30.29 in 10.0 mi West 8.1 mph - N/A   Overcast
1:38 PM 27.5 °F 19.3 °F 14.9 °F 59% 30.28 in 10.0 mi West 8.1 mph - N/A   Overcast
1:57 PM 27.9 °F 19.1 °F 14.7 °F 58% 30.28 in 10.0 mi WSW 9.2 mph 16.1 mph N/A   Overcast
2:16 PM 28.0 °F 19.3 °F 14.5 °F 57% 30.27 in 10.0 mi WSW 9.2 mph - N/A   Overcast
2:35 PM 28.4 °F 19.7 °F 14.5 °F 56% 30.26 in 10.0 mi West 9.2 mph - N/A   Overcast
2:36 PM 28.4 °F 20.4 °F 14.5 °F 56% 30.25 in 10.0 mi West 8.1 mph - N/A   Overcast
2:55 PM 28.4 °F 18.5 °F 14.0 °F 55% 30.25 in 10.0 mi West 11.5 mph 16.1 mph N/A   Overcast
2:59 PM 28.2 °F 20.2 °F 13.8 °F 55% 30.25 in 10.0 mi West 8.1 mph - N/A   Overcast
3:18 PM 28.8 °F 18.4 °F 14.5 °F 55% 30.24 in 10.0 mi WSW 12.7 mph - N/A   Overcast
3:35 PM 28.4 °F 19.1 °F 14.4 °F 56% 30.24 in 10.0 mi WSW 10.4 mph - N/A   Overcast
3:55 PM 28.4 °F 19.1 °F 14.7 °F 57% 30.24 in 10.0 mi West 10.4 mph - N/A   Overcast
3:56 PM 28.4 °F 18.5 °F 14.5 °F 56% 30.24 in 10.0 mi West 11.5 mph - N/A   Overcast
4:15 PM 27.9 °F 17.3 °F 14.9 °F 58% 30.24 in 10.0 mi West 12.7 mph 16.1 mph N/A   Overcast
4:16 PM 27.9 °F 17.3 °F 14.9 °F 58% 30.24 in 10.0 mi West 12.7 mph 16.1 mph N/A   Overcast
4:39 PM 27.7 °F 19.6 °F 14.7 °F 58% 30.24 in 10.0 mi WNW 8.1 mph - N/A   Overcast
4:56 PM 27.5 °F 19.3 °F 14.9 °F 59% 30.23 in 10.0 mi West 8.1 mph - N/A   Overcast
5:16 PM 27.5 °F 18.0 °F 14.9 °F 59% 30.23 in 10.0 mi WNW 10.4 mph - N/A   Overcast
5:35 PM 27.5 °F 20.2 °F 15.3 °F 60% 30.23 in 10.0 mi West 6.9 mph - N/A   Overcast
5:36 PM 27.5 °F 19.3 °F 15.3 °F 60% 30.23 in 10.0 mi WNW 8.1 mph - N/A   Overcast
5:55 PM 27.5 °F 18.0 °F 15.1 °F 60% 30.22 in 10.0 mi WNW 10.4 mph - N/A   Overcast
5:59 PM 27.3 °F 18.4 °F 14.9 °F 60% 30.22 in 10.0 mi WNW 9.2 mph - N/A   Overcast
6:18 PM 27.1 °F 18.2 °F 15.4 °F 61% 30.22 in 10.0 mi West 9.2 mph - N/A   Overcast
6:35 PM 27.1 °F 18.2 °F 14.9 °F 60% 30.22 in 10.0 mi WNW 9.2 mph - N/A   Overcast
6:55 PM 27.0 °F 17.3 °F 15.1 °F 61% 30.22 in 10.0 mi WNW 10.4 mph - N/A   Overcast
7:15 PM 26.8 °F 17.1 °F 14.9 °F 61% 30.22 in 10.0 mi WNW 10.4 mph - N/A   Overcast
7:19 PM 26.6 °F 18.2 °F 14.9 °F 61% 30.22 in 10.0 mi West 8.1 mph - N/A   Overcast
7:37 PM 26.6 °F 15.7 °F 15.1 °F 62% 30.21 in 10.0 mi WNW 12.7 mph - N/A   Overcast
7:55 PM 26.6 °F 16.2 °F 14.9 °F 61% 30.21 in 10.0 mi NW 11.5 mph - N/A   Overcast
8:15 PM 26.4 °F 17.3 °F 15.4 °F 63% 30.21 in 10.0 mi NW 9.2 mph - N/A   Overcast
8:16 PM 26.4 °F 17.3 °F 15.4 °F 63% 30.21 in 10.0 mi NW 9.2 mph - N/A   Overcast
8:35 PM 26.2 °F 16.4 °F 15.3 °F 63% 30.21 in 10.0 mi NW 10.4 mph - N/A   Overcast
8:36 PM 26.2 °F 16.4 °F 15.3 °F 63% 30.20 in 10.0 mi NNW 10.4 mph - N/A   Overcast
8:58 PM 26.1 °F 16.8 °F 14.9 °F 63% 30.20 in 10.0 mi NW 9.2 mph - N/A   Overcast
9:16 PM 25.7 °F 17.1 °F 14.9 °F 64% 30.20 in 10.0 mi WNW 8.1 mph - N/A   Overcast
9:35 PM 25.7 °F 17.1 °F 14.9 °F 64% 30.21 in 10.0 mi WNW 8.1 mph - N/A   Overcast
9:36 PM 25.7 °F 16.4 °F 15.1 °F 64% 30.21 in 10.0 mi NW 9.2 mph - N/A   Overcast
9:55 PM 25.7 °F 16.4 °F 14.9 °F 64% 30.21 in 10.0 mi NW 9.2 mph - N/A   Overcast
10:15 PM 25.7 °F 16.4 °F 15.3 °F 65% 30.21 in 10.0 mi WNW 9.2 mph - N/A   Overcast
10:19 PM 25.7 °F 17.1 °F 15.3 °F 65% 30.21 in 10.0 mi NW 8.1 mph - N/A   Overcast
10:37 PM 25.7 °F 19.0 °F 15.6 °F 66% 30.20 in 10.0 mi NNW 5.8 mph - N/A   Overcast
10:55 PM 25.3 °F 16.0 °F 14.7 °F 64% 30.19 in 10.0 mi NNW 9.2 mph - N/A   Overcast
11:15 PM 25.2 °F 18.3 °F 14.4 °F 64% 30.19 in 10.0 mi North 5.8 mph - N/A   Overcast
11:16 PM 25.2 °F 18.3 °F 14.5 °F 64% 30.18 in 10.0 mi North 5.8 mph - N/A   Overcast
11:35 PM 24.8 °F 16.1 °F 14.7 °F 66% 30.18 in 10.0 mi North 8.1 mph - N/A   Overcast
11:36 PM 24.8 °F 16.1 °F 14.7 °F 66% 30.18 in 10.0 mi North 8.1 mph - N/A   Overcast
11:59 PM 24.8 °F 16.1 °F 14.5 °F 65% 30.18 in 10.0 mi North 8.1 mph - N/A   Overcast